McDade, Louisiana
Current Conditions -  °F | °C
As of 6:58 AM on Saturday 01 Nov 2014 (Local Time) from KBAD Reporting Station
Clear Clear  
Wind Chill: 30°   Ceiling: Unl
Heat Index: 34°   Visibility: 10mi
Dew Point: 27°   Wind: 5mph
Humidity: 74%   Direction: 340°NNW
Pressure: 30.43"   Gusts: NA
Location:  32.3415°N, 93.4966°W
Report Text: KBAD 011158Z AUTO 34004KT 10SM CLR 01/M03 A3043 RMK AO2 SLP308 T00131029 10089 20013 53021
Loading
Personal Weather Stations






























Interactive Weather Map
Tropical Storm Tracking
New forecast layout! Learn more

10-Day Weather Forecast

Advertisements
Track Severe Weather on mobile